createdAt,value
2024-02-01T00:00:32.188Z,0.51
2024-02-01T00:01:32.180Z,0.51
2024-02-01T00:02:32.347Z,0.51
2024-02-01T00:03:32.297Z,0.52
2024-02-01T00:04:32.375Z,0.52
2024-02-01T00:05:32.527Z,0.51
2024-02-01T00:06:32.662Z,0.52
2024-02-01T00:07:32.532Z,0.51
2024-02-01T00:08:32.618Z,0.52
2024-02-01T00:09:32.660Z,0.52
2024-02-01T00:10:32.741Z,0.51
2024-02-01T00:11:32.793Z,0.51
2024-02-01T00:12:32.838Z,0.51
2024-02-01T00:13:32.913Z,0.51
2024-02-01T00:14:33.101Z,0.51
2024-02-01T00:15:33.034Z,0.50
2024-02-01T00:16:33.177Z,0.52
2024-02-01T00:17:33.272Z,0.50
2024-02-01T00:18:33.300Z,0.51
2024-02-01T00:19:33.476Z,0.51
2024-02-01T00:20:33.410Z,0.51
2024-02-01T00:21:33.444Z,0.52
2024-02-01T00:23:33.589Z,0.52
2024-02-01T00:24:33.638Z,0.51
2024-02-01T00:25:33.738Z,0.51
2024-02-01T00:26:33.836Z,0.51
2024-02-01T00:27:33.853Z,0.51
2024-02-01T00:28:33.935Z,0.51
2024-02-01T00:29:34.050Z,0.51
2024-02-01T00:30:34.054Z,0.52
2024-02-01T00:31:34.197Z,0.51
2024-02-01T00:32:34.344Z,0.51
2024-02-01T00:33:34.454Z,0.52
2024-02-01T00:34:34.384Z,0.52
2024-02-01T00:35:34.447Z,0.51
2024-02-01T00:36:34.471Z,0.52
2024-02-01T00:37:34.543Z,0.52
2024-02-01T00:38:34.627Z,0.51
2024-02-01T00:39:34.693Z,0.51
2024-02-01T00:40:34.763Z,0.52
2024-02-01T00:41:35.047Z,0.52
2024-02-01T00:42:34.940Z,0.51
2024-02-01T00:43:34.983Z,0.51
2024-02-01T00:44:35.110Z,0.52
2024-02-01T00:45:35.120Z,0.51
2024-02-01T00:46:35.181Z,0.52
2024-02-01T00:47:35.522Z,0.51
2024-02-01T00:48:35.468Z,0.52
2024-02-01T00:49:35.583Z,0.52
2024-02-01T00:50:35.511Z,0.51
2024-02-01T00:51:35.540Z,0.51
2024-02-01T00:52:35.621Z,0.51
2024-02-01T00:53:35.716Z,0.51
2024-02-01T00:54:35.753Z,0.51
2024-02-01T00:55:35.831Z,0.51
2024-02-01T00:56:35.914Z,0.51
2024-02-01T00:57:35.970Z,0.52
2024-02-01T00:58:36.022Z,0.52
2024-02-01T00:59:36.201Z,0.52
2024-02-01T01:00:36.251Z,0.51
2024-02-01T01:01:36.274Z,0.51
2024-02-01T01:02:36.315Z,0.51
2024-02-01T01:03:36.364Z,0.52
2024-02-01T01:04:36.522Z,0.51
2024-02-01T01:05:36.552Z,0.51
2024-02-01T01:06:36.568Z,0.51
2024-02-01T01:07:36.651Z,0.51
2024-02-01T01:08:36.746Z,0.51
2024-02-01T01:09:36.770Z,0.51
2024-02-01T01:10:36.853Z,0.52
2024-02-01T01:11:36.944Z,0.51
2024-02-01T01:12:36.996Z,0.51
2024-02-01T01:13:37.035Z,0.52
2024-02-01T01:14:37.143Z,0.51
2024-02-01T01:15:37.176Z,0.52
2024-02-01T01:16:37.259Z,0.51
2024-02-01T01:17:37.421Z,0.51
2024-02-01T01:18:37.505Z,0.51
2024-02-01T01:19:37.484Z,0.51
2024-02-01T01:20:37.576Z,0.52
2024-02-01T01:21:37.612Z,0.52
2024-02-01T01:22:37.693Z,0.51
2024-02-01T01:23:37.822Z,0.51
2024-02-01T01:24:37.827Z,0.51
2024-02-01T01:25:37.829Z,0.51
2024-02-01T01:26:37.877Z,0.51
2024-02-01T01:27:37.914Z,0.50
2024-02-01T01:28:37.981Z,0.52
2024-02-01T01:29:38.023Z,0.50
2024-02-01T01:30:38.074Z,0.50
2024-02-01T01:31:38.107Z,0.52
2024-02-01T01:32:38.222Z,0.52
2024-02-01T01:33:38.484Z,0.52
2024-02-01T01:34:38.258Z,0.52
2024-02-01T01:35:38.320Z,0.52
2024-02-01T01:36:38.327Z,0.51
2024-02-01T01:37:38.435Z,0.51
2024-02-01T01:38:38.422Z,0.51
2024-02-01T01:39:38.419Z,0.52
2024-02-01T01:40:38.465Z,0.52
2024-02-01T01:41:38.507Z,0.52
2024-02-01T01:42:38.530Z,0.51
2024-02-01T01:43:38.582Z,0.51
2024-02-01T01:44:38.641Z,0.50
2024-02-01T01:45:38.643Z,0.51
2024-02-01T01:46:38.750Z,0.52
2024-02-01T01:47:38.782Z,0.51
2024-02-01T01:48:38.929Z,0.52
2024-02-01T01:49:38.853Z,0.51
2024-02-01T01:50:38.894Z,0.51
2024-02-01T01:51:38.892Z,0.50
2024-02-01T01:52:38.936Z,0.51
2024-02-01T01:53:39.041Z,0.53
2024-02-01T01:54:39.040Z,0.51
2024-02-01T01:55:39.084Z,0.50
2024-02-01T01:56:39.283Z,0.51
2024-02-01T01:57:39.213Z,0.51
2024-02-01T01:58:39.255Z,0.50
2024-02-01T01:59:39.313Z,0.52
2024-02-01T02:00:39.325Z,0.51
2024-02-01T02:01:39.344Z,0.52
2024-02-01T02:02:39.426Z,0.52
2024-02-01T02:03:39.594Z,0.52
2024-02-01T02:04:39.490Z,0.51
2024-02-01T02:05:39.604Z,0.51
2024-02-01T02:06:39.669Z,0.51
2024-02-01T02:07:39.588Z,0.52
2024-02-01T02:08:39.685Z,0.52
2024-02-01T02:09:39.658Z,0.51
2024-02-01T02:10:39.737Z,0.51
2024-02-01T02:11:39.779Z,0.52
2024-02-01T02:12:39.819Z,0.51
2024-02-01T02:13:39.869Z,0.52
2024-02-01T02:14:39.923Z,0.51
2024-02-01T02:15:39.945Z,0.51
2024-02-01T02:16:40.139Z,0.52
2024-02-01T02:17:40.250Z,0.52
2024-02-01T02:18:40.165Z,0.52
2024-02-01T02:19:40.207Z,0.52
2024-02-01T02:20:40.210Z,0.50
2024-02-01T02:21:40.218Z,0.52
2024-02-01T02:22:40.248Z,0.51
2024-02-01T02:23:40.348Z,0.52
2024-02-01T02:24:40.319Z,0.51
2024-02-01T02:25:40.364Z,0.53
2024-02-01T02:26:40.448Z,0.52
2024-02-01T02:27:40.444Z,0.51
2024-02-01T02:28:40.506Z,0.52
2024-02-01T02:29:40.599Z,0.52
2024-02-01T02:30:40.665Z,0.51
2024-02-01T02:31:40.707Z,0.52
2024-02-01T02:32:40.987Z,0.51
2024-02-01T02:33:40.999Z,0.52
2024-02-01T02:34:40.939Z,0.52
2024-02-01T02:35:41.022Z,0.51
2024-02-01T02:36:41.062Z,0.51
2024-02-01T02:37:41.112Z,0.51
2024-02-01T02:38:41.196Z,0.51
2024-02-01T02:39:41.228Z,0.51
2024-02-01T02:40:41.293Z,0.52
2024-02-01T02:41:41.405Z,0.51
2024-02-01T02:42:41.394Z,0.52
2024-02-01T02:43:41.422Z,0.51
2024-02-01T02:44:41.513Z,0.52
2024-02-01T02:45:41.524Z,0.52
2024-02-01T02:46:41.604Z,0.51
2024-02-01T02:47:41.682Z,0.51
2024-02-01T02:48:41.829Z,0.51
2024-02-01T02:49:41.831Z,0.52
2024-02-01T02:50:41.840Z,0.52
2024-02-01T02:51:41.890Z,0.52
2024-02-01T02:52:41.871Z,0.51
2024-02-01T02:53:41.927Z,0.52
2024-02-01T02:54:41.947Z,0.51
2024-02-01T02:55:41.993Z,0.50
2024-02-01T02:56:42.113Z,0.52
2024-02-01T02:57:42.072Z,0.52
2024-02-01T02:58:42.111Z,0.52
2024-02-01T02:59:42.154Z,0.52
2024-02-01T03:00:42.197Z,0.51
2024-02-01T03:01:42.203Z,0.53
2024-02-01T03:02:42.446Z,0.53
2024-02-01T03:03:42.516Z,0.53
2024-02-01T03:04:42.320Z,0.52
2024-02-01T03:05:42.409Z,0.52
2024-02-01T03:06:42.417Z,0.52
2024-02-01T03:07:42.378Z,0.51
2024-02-01T03:08:42.533Z,0.53
2024-02-01T03:09:42.430Z,0.53
2024-02-01T03:10:42.489Z,0.52
2024-02-01T03:11:42.517Z,0.54
2024-02-01T03:12:42.494Z,0.54
2024-02-01T03:13:42.523Z,0.52
2024-02-01T03:14:42.566Z,0.53
2024-02-01T03:15:42.542Z,0.54
2024-02-01T03:16:42.560Z,0.52
2024-02-01T03:17:43.046Z,0.54
2024-02-01T03:18:42.765Z,0.52
2024-02-01T03:19:42.701Z,0.54
2024-02-01T03:20:42.711Z,0.54
2024-02-01T03:21:42.666Z,0.54
2024-02-01T03:22:42.666Z,0.53
2024-02-01T03:23:42.750Z,0.54
2024-02-01T03:24:42.685Z,0.53
2024-02-01T03:25:42.691Z,0.53
2024-02-01T03:26:42.736Z,0.54
2024-02-01T03:27:42.705Z,0.53
2024-02-01T03:28:42.754Z,0.53
2024-02-01T03:29:42.812Z,0.52
2024-02-01T03:30:42.721Z,0.54
2024-02-01T03:31:42.786Z,0.54
2024-02-01T03:32:42.788Z,0.54
2024-02-01T03:33:42.851Z,0.53
2024-02-01T03:34:42.749Z,0.52
2024-02-01T03:35:42.839Z,0.53
2024-02-01T03:36:42.774Z,0.54
2024-02-01T03:37:42.762Z,0.53
2024-02-01T03:38:42.788Z,0.54
2024-02-01T03:39:42.813Z,0.54
2024-02-01T03:40:42.814Z,0.53
2024-02-01T03:41:42.906Z,0.53
2024-02-01T03:42:42.866Z,0.52
2024-02-01T03:43:42.897Z,0.53
2024-02-01T03:44:42.974Z,0.52
2024-02-01T03:45:45.122Z,0.55
2024-02-01T03:46:42.988Z,0.54
2024-02-01T03:47:43.096Z,0.53
2024-02-01T03:48:43.161Z,0.54
2024-02-01T03:49:43.203Z,0.53
2024-02-01T03:50:43.197Z,0.53
2024-02-01T03:51:43.190Z,0.53
2024-02-01T03:52:43.237Z,0.52
2024-02-01T03:53:43.392Z,0.53
2024-02-01T03:54:43.329Z,0.53
2024-02-01T03:55:43.395Z,0.52
2024-02-01T03:56:43.561Z,0.53
2024-02-01T03:57:45.262Z,0.53
2024-02-01T03:58:43.545Z,0.53
2024-02-01T03:59:43.621Z,0.52
2024-02-01T04:00:43.681Z,0.53
2024-02-01T04:01:43.671Z,0.53
2024-02-01T04:02:43.723Z,0.54
2024-02-01T04:03:43.755Z,0.52
2024-02-01T04:04:43.762Z,0.53
2024-02-01T04:05:43.859Z,0.53
2024-02-01T04:06:43.879Z,0.54
2024-02-01T04:07:43.840Z,0.54
2024-02-01T04:08:43.892Z,0.54
2024-02-01T04:09:44.867Z,0.52
2024-02-01T04:10:43.938Z,0.55
2024-02-01T04:11:44.006Z,0.52
2024-02-01T04:12:44.053Z,0.54
2024-02-01T04:13:44.099Z,0.53
2024-02-01T04:14:44.238Z,0.52
2024-02-01T04:15:44.224Z,0.52
2024-02-01T04:16:44.295Z,0.52
2024-02-01T04:17:44.372Z,0.53
2024-02-01T04:18:44.553Z,0.54
2024-02-01T04:19:44.483Z,0.53
2024-02-01T04:20:44.634Z,0.53
2024-02-01T04:21:44.597Z,0.52
2024-02-01T04:22:44.655Z,0.53
2024-02-01T04:23:44.731Z,0.52
2024-02-01T04:24:44.773Z,0.51
2024-02-01T04:25:44.911Z,0.53
2024-02-01T04:26:44.885Z,0.53
2024-02-01T04:27:45.014Z,0.53
2024-02-01T04:28:44.993Z,0.52
2024-02-01T04:29:45.078Z,0.53
2024-02-01T04:30:45.123Z,0.52
2024-02-01T04:31:45.168Z,0.54
2024-02-01T04:32:45.291Z,0.51
2024-02-01T04:33:45.411Z,0.52
2024-02-01T04:34:45.402Z,0.53
2024-02-01T04:35:45.502Z,0.53
2024-02-01T04:36:45.542Z,0.51
2024-02-01T04:37:45.585Z,0.52
2024-02-01T04:38:45.678Z,0.51
2024-02-01T04:39:45.736Z,0.51
2024-02-01T04:40:52.985Z,0.50
2024-02-01T04:41:53.028Z,0.50
2024-02-01T04:42:53.209Z,0.50
2024-02-01T04:43:53.003Z,0.50
2024-02-01T04:44:53.041Z,0.50
2024-02-01T04:45:53.080Z,0.51
2024-02-01T04:46:53.090Z,0.50
2024-02-01T04:47:53.279Z,0.51
2024-02-01T04:48:53.357Z,0.50
2024-02-01T04:49:53.314Z,0.51
2024-02-01T04:50:53.373Z,0.51
2024-02-01T04:51:53.379Z,0.50
2024-02-01T04:52:53.412Z,0.51
2024-02-01T04:53:53.539Z,0.51
2024-02-01T04:54:53.514Z,0.51
2024-02-01T04:55:53.629Z,0.51
2024-02-01T04:56:53.638Z,0.51
2024-02-01T04:57:53.677Z,0.51
2024-02-01T04:58:53.744Z,0.52
2024-02-01T04:59:53.834Z,0.50
2024-02-01T05:00:53.897Z,0.52
2024-02-01T05:01:54.022Z,0.50
2024-02-01T05:02:54.078Z,0.52
2024-02-01T05:03:54.125Z,0.52
2024-02-01T05:04:54.107Z,0.51
2024-02-01T05:05:54.339Z,0.51
2024-02-01T05:06:54.433Z,0.52
2024-02-01T05:07:54.293Z,0.52
2024-02-01T05:08:54.392Z,0.51
2024-02-01T05:09:54.374Z,0.50
2024-02-01T05:10:54.412Z,0.51
2024-02-01T05:11:54.531Z,0.51
2024-02-01T05:12:54.516Z,0.52
2024-02-01T05:13:54.569Z,0.51
2024-02-01T05:14:54.645Z,0.52
2024-02-01T05:15:54.615Z,0.51
2024-02-01T05:16:54.627Z,0.52
2024-02-01T05:17:54.730Z,0.53
2024-02-01T05:18:54.783Z,0.51
2024-02-01T05:19:54.725Z,0.52
2024-02-01T05:20:54.753Z,0.51
2024-02-01T05:21:54.725Z,0.51
2024-02-01T05:22:54.744Z,0.51
2024-02-01T05:23:54.757Z,0.51
2024-02-01T05:24:54.775Z,0.50
2024-02-01T05:25:54.832Z,0.51
2024-02-01T05:26:54.883Z,0.51
2024-02-01T05:27:54.911Z,0.52
2024-02-01T05:28:54.978Z,0.52
2024-02-01T05:29:55.047Z,0.52
2024-02-01T05:30:55.099Z,0.50
2024-02-01T05:31:55.162Z,0.51
2024-02-01T05:32:56.506Z,0.51
2024-02-01T05:33:55.411Z,0.52
2024-02-01T05:34:55.332Z,0.52
2024-02-01T05:35:55.492Z,0.51
2024-02-01T05:36:55.471Z,0.52
2024-02-01T05:37:55.565Z,0.51
2024-02-01T05:38:55.632Z,0.51
2024-02-01T05:39:55.680Z,0.52
2024-02-01T05:40:55.816Z,0.51
2024-02-01T05:41:55.872Z,0.52
2024-02-01T05:42:55.867Z,0.51
2024-02-01T05:43:55.934Z,0.52
2024-02-01T05:44:56.020Z,0.51
2024-02-01T05:45:56.079Z,0.51
2024-02-01T05:46:56.162Z,0.51
2024-02-01T05:47:56.292Z,0.50
2024-02-01T05:49:56.612Z,0.51
2024-02-01T05:50:56.421Z,0.51
2024-02-01T05:51:56.457Z,0.52
2024-02-01T05:52:56.476Z,0.52
2024-02-01T05:53:56.609Z,0.50
2024-02-01T05:54:56.567Z,0.51
2024-02-01T05:55:56.588Z,0.52
2024-02-01T05:56:56.631Z,0.52
2024-02-01T05:57:56.648Z,0.52
2024-02-01T05:58:56.713Z,0.52
2024-02-01T05:59:56.770Z,0.52
2024-02-01T06:00:56.843Z,0.52
2024-02-01T06:01:56.809Z,0.52
2024-02-01T06:02:56.839Z,0.51
2024-02-01T06:03:56.866Z,0.52
2024-02-01T06:04:57.010Z,0.51
2024-02-01T06:05:57.013Z,0.51
2024-02-01T06:06:57.033Z,0.51
2024-02-01T06:07:57.048Z,0.52
2024-02-01T06:08:57.122Z,0.51
2024-02-01T06:09:57.126Z,0.51
2024-02-01T06:10:57.169Z,0.51
2024-02-01T06:11:57.183Z,0.51
2024-02-01T06:12:57.214Z,0.51
2024-02-01T06:13:57.229Z,0.51
2024-02-01T06:14:57.333Z,0.52
2024-02-01T06:15:57.301Z,0.51
2024-02-01T06:16:57.324Z,0.51
2024-02-01T06:17:57.403Z,0.52
2024-02-01T06:18:57.475Z,0.51
2024-02-01T06:19:57.501Z,0.51
2024-02-01T06:20:57.503Z,0.51
2024-02-01T06:21:57.522Z,0.51
2024-02-01T06:22:57.604Z,0.51
2024-02-01T06:23:57.730Z,0.51
2024-02-01T06:24:57.756Z,0.52
2024-02-01T06:25:57.800Z,0.52
2024-02-01T06:26:57.878Z,0.52
2024-02-01T06:27:59.003Z,0.51
2024-02-01T06:28:58.006Z,0.52
2024-02-01T06:29:58.096Z,0.52
2024-02-01T06:30:58.157Z,0.51
2024-02-01T06:31:58.198Z,0.51
2024-02-01T06:32:58.302Z,0.51
2024-02-01T06:33:58.344Z,0.53
2024-02-01T06:34:58.416Z,0.53
2024-02-01T06:35:58.414Z,0.53
2024-02-01T06:36:58.458Z,0.53
2024-02-01T06:37:58.475Z,0.54
2024-02-01T06:38:58.554Z,0.54
2024-02-01T06:39:58.699Z,0.53
2024-02-01T06:40:58.703Z,0.53
2024-02-01T06:41:58.780Z,0.53
2024-02-01T06:42:58.706Z,0.54
2024-02-01T06:43:58.748Z,0.55
2024-02-01T06:44:58.896Z,0.56
2024-02-01T06:45:58.824Z,0.53
2024-02-01T06:46:58.882Z,0.51
2024-02-01T06:47:58.967Z,0.52
2024-02-01T06:48:58.909Z,0.55
2024-02-01T06:49:58.889Z,0.57
2024-02-01T06:50:59.426Z,0.61
2024-02-01T06:51:58.996Z,0.63
2024-02-01T06:52:59.241Z,0.65
2024-02-01T06:54:00.363Z,0.68
2024-02-01T06:54:59.207Z,0.69
2024-02-01T06:55:59.392Z,0.70
2024-02-01T06:56:59.172Z,0.71
2024-02-01T06:57:59.128Z,0.72
2024-02-01T06:58:59.189Z,0.75
2024-02-01T06:59:59.141Z,0.76
2024-02-01T07:00:59.164Z,0.77
2024-02-01T07:01:59.124Z,0.78
2024-02-01T07:02:59.241Z,0.79
2024-02-01T07:03:59.331Z,0.80
2024-02-01T07:04:59.178Z,0.80
2024-02-01T07:05:59.290Z,0.81
2024-02-01T07:06:59.197Z,0.82
2024-02-01T07:07:59.188Z,0.82
2024-02-01T07:08:59.199Z,0.83
2024-02-01T07:10:00.208Z,0.84
2024-02-01T07:10:59.162Z,0.86
2024-02-01T07:11:59.190Z,0.85
2024-02-01T07:12:59.166Z,0.84
2024-02-01T07:13:59.161Z,0.85
2024-02-01T07:14:59.231Z,0.86
2024-02-01T07:15:59.161Z,0.86
2024-02-01T07:16:59.177Z,0.86
2024-02-01T07:17:59.321Z,0.86
2024-02-01T07:18:59.235Z,0.86
2024-02-01T07:19:59.258Z,0.86
2024-02-01T07:21:00.661Z,0.87
2024-02-01T07:21:59.176Z,0.85
2024-02-01T07:22:59.185Z,0.86
2024-02-01T07:23:59.214Z,0.86
2024-02-01T07:24:59.189Z,0.86
2024-02-01T07:25:59.176Z,0.87
2024-02-01T07:26:59.217Z,0.87
2024-02-01T07:28:00.166Z,0.88
2024-02-01T07:28:59.200Z,0.88
2024-02-01T07:29:59.232Z,0.87
2024-02-01T07:30:59.263Z,0.88
2024-02-01T07:31:59.220Z,0.88
2024-02-01T07:32:59.253Z,0.87
2024-02-01T07:33:59.395Z,0.87
2024-02-01T07:34:59.228Z,0.87
2024-02-01T07:35:59.244Z,0.87
2024-02-01T07:36:59.261Z,0.87
2024-02-01T07:37:59.228Z,0.86
2024-02-01T07:38:59.261Z,0.87
2024-02-01T07:39:59.249Z,0.87
2024-02-01T07:40:59.277Z,0.87
2024-02-01T07:41:59.308Z,0.87
2024-02-01T07:42:59.318Z,0.88
2024-02-01T07:43:59.363Z,0.86
2024-02-01T07:44:59.394Z,0.86
2024-02-01T07:45:59.329Z,0.86
2024-02-01T07:46:59.353Z,0.86
2024-02-01T07:47:59.674Z,0.86
2024-02-01T07:48:59.551Z,0.86
2024-02-01T07:49:59.545Z,0.86
2024-02-01T07:50:59.487Z,0.87
2024-02-01T07:51:59.412Z,0.87
2024-02-01T07:52:59.432Z,0.88
2024-02-01T07:53:59.517Z,0.95
2024-02-01T07:54:59.493Z,0.97
2024-02-01T07:55:59.544Z,0.92
2024-02-01T07:56:59.580Z,0.88
2024-02-01T07:57:59.597Z,0.87
2024-02-01T07:58:59.608Z,0.85
2024-02-01T07:59:59.665Z,0.85
2024-02-01T08:00:59.654Z,0.87
2024-02-01T08:01:59.612Z,0.86
2024-02-01T08:02:59.716Z,0.88
2024-02-01T08:03:59.772Z,0.90
2024-02-01T08:04:59.799Z,0.93
2024-02-01T08:05:59.913Z,0.94
2024-02-01T08:07:00.051Z,0.97
2024-02-01T08:07:59.944Z,1.01
2024-02-01T08:09:00.090Z,1.04
2024-02-01T08:10:01.203Z,1.08
2024-02-01T08:11:00.101Z,1.11
2024-02-01T08:12:00.177Z,1.13
2024-02-01T08:13:00.167Z,1.17
2024-02-01T08:14:00.189Z,1.21
2024-02-01T08:15:00.342Z,1.23
2024-02-01T08:16:00.283Z,1.23
2024-02-01T08:17:00.300Z,1.26
2024-02-01T08:18:00.496Z,1.29
2024-02-01T08:19:00.480Z,1.29
2024-02-01T08:20:00.466Z,1.33
2024-02-01T08:21:00.764Z,1.39
2024-02-01T08:22:00.567Z,1.37
2024-02-01T08:23:00.670Z,1.32
2024-02-01T08:24:00.697Z,1.30
2024-02-01T08:25:01.881Z,1.23
2024-02-01T08:26:00.724Z,1.20
2024-02-01T08:27:00.775Z,1.21
2024-02-01T08:28:00.784Z,1.23
2024-02-01T08:29:00.761Z,1.23
2024-02-01T08:30:00.784Z,1.26
2024-02-01T08:31:00.730Z,1.34
2024-02-01T08:32:00.729Z,1.34
2024-02-01T08:33:00.850Z,1.27
2024-02-01T08:34:00.930Z,1.29
2024-02-01T08:35:00.823Z,1.28
2024-02-01T08:36:02.396Z,1.26
2024-02-01T08:37:00.745Z,1.26
2024-02-01T08:38:00.741Z,1.28
2024-02-01T08:39:00.777Z,1.32
2024-02-01T08:40:00.749Z,1.30
2024-02-01T08:41:00.752Z,1.29
2024-02-01T08:42:00.771Z,1.23
2024-02-01T08:43:00.787Z,1.22
2024-02-01T08:44:00.752Z,1.18
2024-02-01T08:45:00.781Z,1.17
2024-02-01T08:46:00.767Z,1.19
2024-02-01T08:47:00.776Z,1.18
2024-02-01T08:48:00.855Z,1.26
2024-02-01T08:49:00.935Z,1.33
2024-02-01T08:50:00.803Z,1.26
2024-02-01T08:51:00.823Z,1.19
2024-02-01T08:52:00.759Z,1.10
2024-02-01T08:53:00.795Z,1.08
2024-02-01T08:54:00.827Z,1.03
2024-02-01T08:55:00.918Z,1.06
2024-02-01T08:56:00.758Z,1.08
2024-02-01T08:57:00.834Z,1.10
2024-02-01T08:58:00.767Z,1.11
2024-02-01T08:59:00.773Z,1.13
2024-02-01T09:00:00.795Z,1.10
2024-02-01T09:01:00.850Z,1.12
2024-02-01T09:02:00.753Z,1.13
2024-02-01T09:03:00.859Z,1.13
2024-02-01T09:04:00.838Z,1.14
2024-02-01T09:05:00.883Z,1.16
2024-02-01T09:06:00.886Z,1.16
2024-02-01T09:07:00.889Z,1.18
2024-02-01T09:08:00.808Z,1.18
2024-02-01T09:09:00.913Z,1.19
2024-02-01T09:10:02.732Z,1.20
2024-02-01T09:11:01.786Z,1.20
2024-02-01T09:12:01.127Z,1.21
2024-02-01T09:13:08.695Z,0.50
2024-02-01T09:14:08.663Z,0.50
2024-02-01T09:15:08.724Z,0.50
2024-02-01T09:16:08.671Z,0.50
2024-02-01T09:17:08.690Z,0.50
2024-02-01T09:18:08.837Z,0.51
2024-02-01T09:19:09.062Z,0.51
2024-02-01T09:20:08.723Z,0.52
2024-02-01T09:21:08.689Z,0.52
2024-02-01T09:22:08.669Z,0.52
2024-02-01T09:23:08.680Z,0.54
2024-02-01T09:24:08.739Z,0.56
2024-02-01T09:25:08.733Z,0.59
2024-02-01T09:26:08.804Z,0.63
2024-02-01T09:27:10.608Z,0.63
2024-02-01T09:28:08.827Z,0.65
2024-02-01T09:29:08.836Z,0.65
2024-02-01T09:30:08.885Z,0.64
2024-02-01T09:31:08.839Z,0.64
2024-02-01T09:32:08.844Z,0.64
2024-02-01T09:33:08.987Z,0.63
2024-02-01T09:34:08.940Z,0.64
2024-02-01T09:35:08.863Z,0.64
2024-02-01T09:36:08.885Z,0.63
2024-02-01T09:37:08.857Z,0.63
2024-02-01T09:38:08.854Z,0.63
2024-02-01T09:39:08.896Z,0.67
2024-02-01T09:40:08.872Z,0.71
2024-02-01T09:41:08.878Z,0.72
2024-02-01T09:42:08.886Z,0.72
2024-02-01T09:43:08.856Z,0.72
2024-02-01T09:44:08.880Z,0.74
2024-02-01T09:45:08.904Z,0.75
2024-02-01T09:46:08.879Z,0.75
2024-02-01T09:47:08.892Z,0.78
2024-02-01T09:48:09.025Z,0.83
2024-02-01T09:49:14.977Z,0.87
2024-02-01T09:50:09.922Z,0.87
2024-02-01T09:51:08.927Z,0.88
2024-02-01T09:52:08.877Z,0.88
2024-02-01T09:53:09.946Z,0.90
2024-02-01T09:54:08.904Z,0.90
2024-02-01T09:55:08.888Z,0.91
2024-02-01T09:56:08.879Z,0.93
2024-02-01T09:57:08.931Z,0.92
2024-02-01T09:58:08.889Z,0.93
2024-02-01T09:59:08.937Z,0.95
2024-02-01T10:00:08.995Z,0.94
2024-02-01T10:01:09.060Z,0.94
2024-02-01T10:02:09.086Z,0.94
2024-02-01T10:03:09.222Z,0.95
2024-02-01T10:04:09.293Z,0.96
2024-02-01T10:05:09.293Z,0.97
2024-02-01T10:06:09.514Z,0.98
2024-02-01T10:07:09.503Z,1.01
2024-02-01T10:08:09.500Z,1.03
2024-02-01T10:09:09.551Z,1.04
2024-02-01T10:10:09.595Z,1.11
2024-02-01T10:11:09.640Z,1.13
2024-02-01T10:12:09.773Z,1.12
2024-02-01T10:13:09.710Z,1.14
2024-02-01T10:14:09.739Z,1.16
2024-02-01T10:15:11.004Z,1.16
2024-02-01T10:16:09.833Z,1.19
2024-02-01T10:17:09.892Z,1.19
2024-02-01T10:18:10.044Z,1.17
2024-02-01T10:19:10.342Z,1.23
2024-02-01T10:20:10.019Z,1.20
2024-02-01T10:21:10.058Z,1.24
2024-02-01T10:22:10.326Z,1.24
2024-02-01T10:23:10.142Z,1.29
2024-02-01T10:24:10.285Z,1.31
2024-02-01T10:25:10.223Z,1.30
2024-02-01T10:26:10.308Z,1.36
2024-02-01T10:27:10.349Z,1.33
2024-02-01T10:28:10.384Z,1.32
2024-02-01T10:29:10.443Z,1.35
2024-02-01T10:30:10.533Z,1.34
2024-02-01T10:31:10.516Z,1.37
2024-02-01T10:32:10.533Z,1.36
2024-02-01T10:33:10.680Z,1.39
2024-02-01T10:34:10.779Z,1.37
2024-02-01T10:35:10.669Z,1.37
2024-02-01T10:36:11.236Z,1.36
2024-02-01T10:37:10.710Z,1.45
2024-02-01T10:38:10.765Z,1.41
2024-02-01T10:39:10.818Z,1.47
2024-02-01T10:40:10.838Z,1.50
2024-02-01T10:41:10.868Z,1.45
2024-02-01T10:42:10.952Z,1.50
2024-02-01T10:43:10.960Z,1.50
2024-02-01T10:44:10.938Z,1.51
2024-02-01T10:45:11.080Z,1.55
2024-02-01T10:46:10.993Z,1.58
2024-02-01T10:47:10.985Z,1.57
2024-02-01T10:48:11.116Z,1.59
2024-02-01T10:49:11.183Z,1.56
2024-02-01T10:50:11.055Z,1.60
2024-02-01T10:51:11.292Z,1.51
2024-02-01T10:52:11.152Z,1.70
2024-02-01T10:53:11.174Z,1.74
2024-02-01T10:54:11.265Z,1.65
2024-02-01T10:55:11.421Z,1.49
2024-02-01T10:56:11.285Z,1.34
2024-02-01T10:57:11.397Z,1.18
2024-02-01T10:58:11.341Z,1.09
2024-02-01T10:59:11.363Z,0.95
2024-02-01T11:00:11.445Z,0.86
2024-02-01T11:01:11.468Z,0.74
2024-02-01T11:02:11.434Z,0.62
2024-02-01T11:03:11.490Z,0.53
2024-02-01T11:04:11.581Z,0.50
2024-02-01T11:05:11.558Z,0.50
2024-02-01T11:06:11.696Z,0.51
2024-02-01T11:07:11.717Z,0.50
2024-02-01T11:08:11.681Z,0.51
2024-02-01T11:09:11.751Z,0.51
2024-02-01T11:10:11.712Z,0.51
2024-02-01T11:11:11.783Z,0.52
2024-02-01T11:12:11.864Z,0.53
2024-02-01T11:13:11.872Z,0.53
2024-02-01T11:14:11.927Z,0.54
2024-02-01T11:15:11.985Z,0.55
2024-02-01T11:16:12.055Z,0.56
2024-02-01T11:17:12.047Z,0.56
2024-02-01T11:18:12.331Z,0.56
2024-02-01T11:19:12.280Z,0.57
2024-02-01T11:20:12.299Z,0.58
2024-02-01T11:21:12.160Z,0.58
2024-02-01T11:22:12.199Z,0.59
2024-02-01T11:23:12.154Z,0.58
2024-02-01T11:24:12.320Z,0.59
2024-02-01T11:25:12.211Z,0.61
2024-02-01T11:26:12.181Z,0.60
2024-02-01T11:27:12.189Z,0.60
2024-02-01T11:28:12.187Z,0.61
2024-02-01T11:29:12.189Z,0.62
2024-02-01T11:30:12.223Z,0.62
2024-02-01T11:31:18.557Z,0.64
2024-02-01T11:32:13.396Z,0.64
2024-02-01T11:33:12.346Z,0.64
2024-02-01T11:34:12.417Z,0.64
2024-02-01T11:35:12.223Z,0.64
2024-02-01T11:36:12.283Z,0.66
2024-02-01T11:37:12.206Z,0.66
2024-02-01T11:38:12.249Z,0.66
2024-02-01T11:39:12.273Z,0.65
2024-02-01T11:40:12.266Z,0.67
2024-02-01T11:41:12.313Z,0.67
2024-02-01T11:42:20.585Z,0.67
2024-02-01T11:43:13.344Z,0.67
2024-02-01T11:44:12.394Z,0.67
2024-02-01T11:45:12.386Z,0.65
2024-02-01T11:46:12.379Z,0.66
2024-02-01T11:47:12.368Z,0.66
2024-02-01T11:48:12.481Z,0.67
2024-02-01T11:49:12.407Z,0.66
2024-02-01T11:50:12.513Z,0.66
2024-02-01T11:51:12.427Z,0.67
2024-02-01T11:52:12.388Z,0.70
2024-02-01T11:53:12.377Z,0.70
2024-02-01T11:54:12.428Z,0.70
2024-02-01T11:55:12.367Z,0.70
2024-02-01T11:56:12.373Z,0.71
2024-02-01T11:57:12.464Z,0.73
2024-02-01T11:58:12.375Z,0.72
2024-02-01T11:59:12.391Z,0.72
2024-02-01T12:00:12.471Z,0.72
2024-02-01T12:01:16.166Z,0.73
2024-02-01T12:02:12.416Z,0.73
2024-02-01T12:03:12.522Z,0.73
2024-02-01T12:04:12.457Z,0.74
2024-02-01T12:05:12.421Z,0.75
2024-02-01T12:06:12.459Z,0.77
2024-02-01T12:07:12.424Z,0.78
2024-02-01T12:08:12.402Z,0.79
2024-02-01T12:09:12.421Z,0.79
2024-02-01T12:10:12.429Z,0.79
2024-02-01T12:11:12.423Z,0.80
2024-02-01T12:12:12.454Z,0.81
2024-02-01T12:13:12.410Z,0.80
2024-02-01T12:14:12.643Z,0.81
2024-02-01T12:15:12.413Z,0.89
2024-02-01T12:16:12.424Z,0.97
2024-02-01T12:17:12.412Z,0.97
2024-02-01T12:18:12.502Z,0.99
2024-02-01T12:19:12.570Z,0.99
2024-02-01T12:20:12.473Z,1.01
2024-02-01T12:21:12.545Z,1.03
2024-02-01T12:22:12.433Z,0.99
2024-02-01T12:23:12.406Z,1.02
2024-02-01T12:24:12.474Z,1.01
2024-02-01T12:25:12.434Z,1.01
2024-02-01T12:26:12.447Z,1.02
2024-02-01T12:27:12.548Z,1.03
2024-02-01T12:28:12.531Z,1.06
2024-02-01T12:29:12.497Z,1.04
2024-02-01T12:30:12.847Z,1.06
2024-02-01T12:31:12.609Z,1.05
2024-02-01T12:32:12.651Z,1.05
2024-02-01T12:33:12.902Z,1.09
2024-02-01T12:34:12.871Z,1.09
2024-02-01T12:35:12.810Z,1.10
2024-02-01T12:36:12.888Z,1.12
2024-02-01T12:37:12.915Z,1.13
2024-02-01T12:38:12.901Z,1.08
2024-02-01T12:39:12.968Z,1.12
2024-02-01T12:40:12.939Z,1.11
2024-02-01T12:41:12.967Z,1.12
2024-02-01T12:42:12.990Z,1.14
2024-02-01T12:43:13.003Z,1.13
2024-02-01T12:44:13.019Z,1.17
2024-02-01T12:45:13.071Z,1.18
2024-02-01T12:46:13.134Z,1.17
2024-02-01T12:47:13.156Z,1.19
2024-02-01T12:48:13.278Z,1.16
2024-02-01T12:49:13.456Z,1.19
2024-02-01T12:50:13.250Z,1.18
2024-02-01T12:51:13.260Z,1.22
2024-02-01T12:52:13.259Z,1.18
2024-02-01T12:53:13.254Z,1.19
2024-02-01T12:54:13.319Z,1.19
2024-02-01T12:55:13.249Z,1.20
2024-02-01T12:56:13.251Z,1.20
2024-02-01T12:57:13.259Z,1.22
2024-02-01T12:58:13.271Z,1.22
2024-02-01T12:59:13.278Z,1.23
2024-02-01T13:00:13.385Z,1.22
2024-02-01T13:01:13.350Z,1.21
2024-02-01T13:02:13.316Z,1.21
2024-02-01T13:03:13.532Z,1.23
2024-02-01T13:04:13.404Z,1.22
2024-02-01T13:05:13.487Z,1.21
2024-02-01T13:06:13.557Z,1.23
2024-02-01T13:07:13.431Z,1.23
2024-02-01T13:08:13.475Z,1.20
2024-02-01T13:09:13.461Z,1.19
2024-02-01T13:10:13.533Z,1.20
2024-02-01T13:11:13.540Z,1.21
2024-02-01T13:12:13.527Z,1.22
2024-02-01T13:13:13.548Z,1.23
2024-02-01T13:14:13.552Z,1.23
2024-02-01T13:15:13.614Z,1.22
2024-02-01T13:16:13.566Z,1.21
2024-02-01T13:17:13.576Z,1.21
2024-02-01T13:18:14.077Z,1.20
2024-02-01T13:19:13.884Z,1.19
2024-02-01T13:20:13.628Z,1.20
2024-02-01T13:21:13.701Z,1.21